KANQ

Tri-State Steuben County Airport

Angola, Indiana, USA
METAR KANQ 150655Z AUTO 11008G16KT 10SM CLR M03/M06 A3032 RMK AO2 TSNO
Observed Flight Rules
Nov-15 @ 06:55 UTC (6 hours ago) Visual Flight Rules
Wind Visibility Clouds
110° at 8 knots
 Gusting to 16 knots
10 miles
  • Clear skies
Temperatures Readings
Current -3°C / 27°F
Dewpoint -6°C / 21°F
Humidity 80%
Altimeter 30.32" Hg
Pressure 1027 hPa
Elevation 303
METAR KANQ 150655Z AUTO 11008G16KT 10SM CLR M03/M06 A3032 RMK AO2 TSNO
Observed Flight Rules
Nov-15 @ 06:55 UTC
(6 hours ago)
VFR
Wind Visibility
110° at 8 knots
 Gusting to 16 knots
10 miles
Clouds
  • Clear skies
Temperature Dewpoint
-3°C / 27°F -6°C / 21°F
Humidity Altimeter Pressure
80% 30.32" Hg 1027 hPa